createdAt,value
2022-12-25T00:02:37.610Z,100252.31
2022-12-25T00:05:41.067Z,100235.56
2022-12-25T00:08:44.511Z,100249.84
2022-12-25T00:11:48.384Z,100257.91
2022-12-25T00:14:51.504Z,100254.00
2022-12-25T00:17:55.506Z,100259.47
2022-12-25T00:21:04.830Z,100262.62
2022-12-25T00:24:08.095Z,100257.37
2022-12-25T00:27:11.928Z,100269.19
2022-12-25T00:30:15.345Z,100268.50
2022-12-25T00:33:18.391Z,100261.56
2022-12-25T00:36:23.077Z,100256.50
2022-12-25T00:39:26.018Z,100257.97
2022-12-25T00:42:29.352Z,100268.63
2022-12-25T00:45:32.350Z,100267.41
2022-12-25T00:48:35.858Z,100268.53
2022-12-25T00:51:38.909Z,100273.25
2022-12-25T00:54:42.330Z,100283.25
2022-12-25T00:57:45.191Z,100291.69
2022-12-25T01:00:49.185Z,100287.41
2022-12-25T01:03:53.189Z,100292.78
2022-12-25T01:06:56.406Z,100292.91
2022-12-25T01:10:18.727Z,100294.81
2022-12-25T01:13:22.061Z,100301.25
2022-12-25T01:16:25.559Z,100310.12
2022-12-25T01:19:28.915Z,100312.72
2022-12-25T01:22:31.830Z,100312.38
2022-12-25T01:25:35.122Z,100313.34
2022-12-25T01:28:38.974Z,100310.56
2022-12-25T01:31:43.446Z,100317.06
2022-12-25T01:34:49.319Z,100327.75
2022-12-25T01:37:57.117Z,100325.63
2022-12-25T01:41:00.610Z,100320.91
2022-12-25T01:44:36.877Z,100328.22
2022-12-25T01:47:39.949Z,100323.84
2022-12-25T01:50:48.102Z,100322.84
2022-12-25T01:53:51.144Z,100318.69
2022-12-25T01:56:59.426Z,100315.97
2022-12-25T02:00:02.817Z,100313.59
2022-12-25T02:03:07.571Z,100311.03
2022-12-25T02:06:12.218Z,100297.97
2022-12-25T02:09:15.725Z,100304.06
2022-12-25T02:12:22.735Z,100311.37
2022-12-25T02:15:33.223Z,100311.81
2022-12-25T02:18:43.908Z,100303.94
2022-12-25T02:21:59.020Z,100309.00
2022-12-25T02:25:17.564Z,100301.81
2022-12-25T02:28:29.518Z,100306.66
2022-12-25T02:31:39.202Z,100312.38
2022-12-25T02:35:05.940Z,100313.50
2022-12-25T02:38:20.753Z,100323.88
2022-12-25T02:41:23.703Z,100332.63
2022-12-25T02:44:46.556Z,100328.69
2022-12-25T02:48:08.275Z,100329.78
2022-12-25T02:51:32.093Z,100328.03
2022-12-25T02:54:57.267Z,100346.13
2022-12-25T02:58:23.004Z,100353.97
2022-12-25T03:01:47.719Z,100354.19
2022-12-25T03:05:10.143Z,100356.72
2022-12-25T03:08:20.634Z,100359.75
2022-12-25T03:11:32.814Z,100368.34
2022-12-25T03:14:54.268Z,100354.75
2022-12-25T03:17:59.726Z,100373.72
2022-12-25T03:21:21.338Z,100380.53
2022-12-25T03:24:42.921Z,100377.88
2022-12-25T03:27:46.866Z,100383.16
2022-12-25T03:31:12.252Z,100376.88
2022-12-25T03:34:40.789Z,100381.16
2022-12-25T03:38:27.078Z,100372.09
2022-12-25T03:42:19.052Z,100378.53
2022-12-25T03:45:47.264Z,100381.47
2022-12-25T03:49:11.778Z,100385.50
2022-12-25T03:52:34.869Z,100371.22
2022-12-25T03:55:57.239Z,100375.16
2022-12-25T03:59:23.515Z,100382.13
2022-12-25T04:02:45.439Z,100375.94
2022-12-25T04:06:08.548Z,100368.50
2022-12-25T04:09:30.405Z,100375.66
2022-12-25T04:12:52.106Z,100374.69
2022-12-25T04:16:14.081Z,100377.22
2022-12-25T04:19:36.817Z,100382.06
2022-12-25T04:22:58.313Z,100383.97
2022-12-25T04:26:20.625Z,100380.22
2022-12-25T04:29:42.326Z,100378.34
2022-12-25T04:33:04.227Z,100384.09
2022-12-25T04:36:11.265Z,100385.19
2022-12-25T04:39:14.476Z,100379.00
2022-12-25T04:42:17.726Z,100377.69
2022-12-25T04:45:20.985Z,100378.41
2022-12-25T04:48:24.447Z,100381.09
2022-12-25T04:51:27.694Z,100396.06
2022-12-25T04:54:30.893Z,100404.56
2022-12-25T04:57:34.173Z,100401.56
2022-12-25T05:00:37.569Z,100405.88
2022-12-25T05:03:41.324Z,100397.56
2022-12-25T05:06:45.196Z,100395.16
2022-12-25T05:09:48.485Z,100397.38
2022-12-25T05:12:51.832Z,100405.53
2022-12-25T05:15:55.113Z,100400.38
2022-12-25T05:18:58.132Z,100399.66
2022-12-25T05:22:01.368Z,100407.94
2022-12-25T05:25:04.585Z,100400.50
2022-12-25T05:28:08.176Z,100404.62
2022-12-25T05:31:11.592Z,100402.09
2022-12-25T05:34:14.883Z,100413.59
2022-12-25T05:37:17.798Z,100408.31
2022-12-25T05:40:21.084Z,100421.69
2022-12-25T05:43:24.278Z,100427.50
2022-12-25T05:46:27.884Z,100423.53
2022-12-25T05:49:30.897Z,100430.19
2022-12-25T05:52:34.780Z,100433.97
2022-12-25T05:55:38.834Z,100425.81
2022-12-25T05:58:42.065Z,100434.69
2022-12-25T06:01:45.116Z,100416.72
2022-12-25T06:04:48.573Z,100408.78
2022-12-25T06:07:51.758Z,100423.50
2022-12-25T06:10:55.382Z,100423.34
2022-12-25T06:13:58.309Z,100420.88
2022-12-25T06:17:01.849Z,100426.72
2022-12-25T06:20:06.513Z,100419.19
2022-12-25T06:23:09.899Z,100424.16
2022-12-25T06:26:16.847Z,100416.59
2022-12-25T06:29:20.148Z,100420.91
2022-12-25T06:32:23.302Z,100429.47
2022-12-25T06:35:27.140Z,100426.59
2022-12-25T06:38:30.066Z,100426.06
2022-12-25T06:41:33.716Z,100424.50
2022-12-25T06:44:36.589Z,100430.56
2022-12-25T06:47:39.904Z,100443.16
2022-12-25T06:50:44.335Z,100440.22
2022-12-25T06:53:48.920Z,100444.88
2022-12-25T06:56:51.803Z,100442.88
2022-12-25T06:59:55.669Z,100452.38
2022-12-25T07:02:58.450Z,100461.91
2022-12-25T07:06:01.554Z,100470.59
2022-12-25T07:09:04.406Z,100487.19
2022-12-25T07:12:13.619Z,100482.72
2022-12-25T07:15:16.712Z,100490.63
2022-12-25T07:18:19.919Z,100484.72
2022-12-25T07:21:22.793Z,100491.44
2022-12-25T07:24:25.954Z,100486.94
2022-12-25T07:27:28.982Z,100486.94
2022-12-25T07:30:32.761Z,100500.56
2022-12-25T07:33:36.335Z,100503.03
2022-12-25T07:36:39.701Z,100509.31
2022-12-25T07:39:42.634Z,100509.50
2022-12-25T07:42:45.821Z,100515.94
2022-12-25T07:45:48.728Z,100522.19
2022-12-25T07:48:52.055Z,100526.53
2022-12-25T07:51:55.299Z,100541.19
2022-12-25T07:54:58.511Z,100547.78
2022-12-25T07:58:01.515Z,100551.78
2022-12-25T08:01:07.530Z,100554.94
2022-12-25T08:04:11.870Z,100552.50
2022-12-25T08:07:14.880Z,100549.69
2022-12-25T08:10:19.304Z,100558.34
2022-12-25T08:13:22.353Z,100556.44
2022-12-25T08:16:26.171Z,100552.41
2022-12-25T08:19:29.388Z,100554.16
2022-12-25T08:22:32.653Z,100563.72
2022-12-25T08:25:35.626Z,100557.62
2022-12-25T08:28:39.104Z,100560.19
2022-12-25T08:31:46.491Z,100553.72
2022-12-25T08:34:50.143Z,100553.88
2022-12-25T08:37:53.035Z,100557.94
2022-12-25T08:40:56.211Z,100548.59
2022-12-25T08:43:59.266Z,100556.28
2022-12-25T08:47:02.476Z,100552.41
2022-12-25T08:50:06.224Z,100561.44
2022-12-25T08:53:09.735Z,100565.84
2022-12-25T08:56:13.398Z,100562.09
2022-12-25T08:59:18.060Z,100562.78
2022-12-25T09:02:21.113Z,100559.88
2022-12-25T09:05:25.628Z,100566.16
2022-12-25T09:08:28.704Z,100562.34
2022-12-25T09:11:31.926Z,100562.56
2022-12-25T09:14:34.843Z,100560.09
2022-12-25T09:17:38.373Z,100566.16
2022-12-25T09:20:41.371Z,100569.53
2022-12-25T09:23:44.764Z,100572.22
2022-12-25T09:26:47.698Z,100572.09
2022-12-25T09:29:51.068Z,100573.00
2022-12-25T09:32:54.053Z,100573.91
2022-12-25T09:36:02.966Z,100581.91
2022-12-25T09:39:05.923Z,100570.94
2022-12-25T09:42:21.266Z,100570.81
2022-12-25T09:45:32.786Z,100572.59
2022-12-25T09:48:38.149Z,100576.31
2022-12-25T09:51:44.602Z,100571.84
2022-12-25T09:55:07.209Z,100578.81
2022-12-25T09:58:13.667Z,100569.50
2022-12-25T10:01:33.344Z,100570.69
2022-12-25T10:04:51.965Z,100573.56
2022-12-25T10:08:13.177Z,100578.63
2022-12-25T10:11:38.864Z,100583.50
2022-12-25T10:14:47.462Z,100571.03
2022-12-25T10:18:32.088Z,100565.34
2022-12-25T10:21:35.260Z,100564.69
2022-12-25T10:24:49.082Z,100557.06
2022-12-25T10:27:55.899Z,100549.28
2022-12-25T10:31:21.376Z,100555.44
2022-12-25T10:34:24.687Z,100556.50
2022-12-25T10:37:27.922Z,100549.03
2022-12-25T10:41:01.224Z,100561.59
2022-12-25T10:44:21.239Z,100555.03
2022-12-25T10:47:26.388Z,100552.94
2022-12-25T10:50:30.599Z,100549.59
2022-12-25T10:53:39.659Z,100549.09
2022-12-25T10:57:02.086Z,100550.00
2022-12-25T11:00:08.109Z,100558.31
2022-12-25T11:03:22.790Z,100549.22
2022-12-25T11:06:28.738Z,100539.50
2022-12-25T11:09:32.533Z,100536.63
2022-12-25T11:12:37.172Z,100533.25
2022-12-25T11:15:46.105Z,100531.38
2022-12-25T11:18:51.618Z,100535.31
2022-12-25T11:21:57.403Z,100531.19
2022-12-25T11:25:13.587Z,100525.84
2022-12-25T11:28:17.005Z,100515.69
2022-12-25T11:31:24.727Z,100505.91
2022-12-25T11:34:38.600Z,100510.56
2022-12-25T11:37:52.498Z,100508.28
2022-12-25T11:40:59.217Z,100504.91
2022-12-25T11:44:05.263Z,100500.50
2022-12-25T11:47:38.274Z,100503.22
2022-12-25T11:50:52.231Z,100496.94
2022-12-25T11:53:59.987Z,100497.72
2022-12-25T11:57:04.761Z,100496.69
2022-12-25T12:00:10.412Z,100489.72
2022-12-25T12:03:18.560Z,100493.12
2022-12-25T12:06:57.039Z,100494.63
2022-12-25T12:10:10.153Z,100487.75
2022-12-25T12:13:21.345Z,100484.63
2022-12-25T12:16:24.766Z,100484.87
2022-12-25T12:19:30.695Z,100486.16
2022-12-25T12:22:34.075Z,100486.84
2022-12-25T12:25:41.930Z,100484.53
2022-12-25T12:28:46.440Z,100484.66
2022-12-25T12:31:50.455Z,100486.47
2022-12-25T12:34:53.837Z,100480.81
2022-12-25T12:38:00.236Z,100476.47
2022-12-25T12:41:07.196Z,100473.12
2022-12-25T12:44:11.287Z,100474.56
2022-12-25T12:47:28.527Z,100474.44
2022-12-25T12:50:34.279Z,100482.69
2022-12-25T12:53:42.224Z,100478.03
2022-12-25T12:56:55.513Z,100479.00
2022-12-25T13:00:04.793Z,100480.13
2022-12-25T13:03:27.621Z,100478.97
2022-12-25T13:06:34.585Z,100472.28
2022-12-25T13:09:49.959Z,100474.41
2022-12-25T13:13:05.790Z,100473.53
2022-12-25T13:16:36.826Z,100473.19
2022-12-25T13:19:42.748Z,100473.09
2022-12-25T13:22:52.361Z,100480.41
2022-12-25T13:26:04.414Z,100484.56
2022-12-25T13:29:11.493Z,100484.16
2022-12-25T13:32:25.035Z,100488.69
2022-12-25T13:35:28.186Z,100490.84
2022-12-25T13:38:31.497Z,100481.84
2022-12-25T13:42:12.470Z,100487.66
2022-12-25T13:45:25.064Z,100483.16
2022-12-25T13:48:28.005Z,100484.75
2022-12-25T13:51:31.194Z,100482.69
2022-12-25T13:54:34.176Z,100469.38
2022-12-25T13:57:40.544Z,100472.41
2022-12-25T14:00:53.144Z,100466.03
2022-12-25T14:03:56.741Z,100463.34
2022-12-25T14:07:09.310Z,100467.31
2022-12-25T14:10:14.195Z,100462.25
2022-12-25T14:13:17.058Z,100468.09
2022-12-25T14:16:21.762Z,100470.47
2022-12-25T14:19:33.442Z,100478.66
2022-12-25T14:22:38.688Z,100481.75
2022-12-25T14:25:44.855Z,100491.41
2022-12-25T14:28:49.820Z,100500.56
2022-12-25T14:31:56.153Z,100498.88
2022-12-25T14:35:03.575Z,100498.97
2022-12-25T14:38:06.566Z,100491.63
2022-12-25T14:41:37.096Z,100490.88
2022-12-25T14:44:41.224Z,100491.84
2022-12-25T14:47:53.169Z,100495.44
2022-12-25T14:51:03.142Z,100488.50
2022-12-25T14:54:15.639Z,100484.81
2022-12-25T14:57:34.077Z,100485.69
2022-12-25T15:00:38.706Z,100472.78
2022-12-25T15:03:43.816Z,100484.41
2022-12-25T15:06:56.736Z,100489.75
2022-12-25T15:10:36.496Z,100493.12
2022-12-25T15:13:23.312Z,100499.97
2022-12-25T15:16:47.868Z,100488.97
2022-12-25T15:19:51.143Z,100494.78
2022-12-25T15:23:18.587Z,100495.63
2022-12-25T15:26:17.792Z,100494.41
2022-12-25T15:29:38.143Z,100498.59
2022-12-25T15:32:43.990Z,100499.41
2022-12-25T15:35:47.085Z,100501.87
2022-12-25T15:38:51.061Z,100496.22
2022-12-25T15:42:13.030Z,100501.41
2022-12-25T15:45:21.091Z,100497.56
2022-12-25T15:48:24.000Z,100492.84
2022-12-25T15:51:27.625Z,100500.12
2022-12-25T15:54:31.572Z,100491.94
2022-12-25T15:57:35.325Z,100484.75
2022-12-25T16:00:38.236Z,100490.38
2022-12-25T16:03:42.647Z,100482.75
2022-12-25T16:06:45.712Z,100488.97
2022-12-25T16:09:49.195Z,100477.59
2022-12-25T16:12:52.112Z,100473.63
2022-12-25T16:15:55.405Z,100470.84
2022-12-25T16:18:59.506Z,100470.47
2022-12-25T16:22:02.780Z,100471.19
2022-12-25T16:25:11.785Z,100463.03
2022-12-25T16:28:16.434Z,100466.53
2022-12-25T16:31:19.498Z,100467.63
2022-12-25T16:34:23.905Z,100462.16
2022-12-25T16:37:27.769Z,100457.91
2022-12-25T16:40:34.627Z,100451.34
2022-12-25T16:43:37.532Z,100453.78
2022-12-25T16:46:40.928Z,100454.34
2022-12-25T16:49:44.274Z,100463.50
2022-12-25T16:52:47.231Z,100455.72
2022-12-25T16:55:50.181Z,100452.12
2022-12-25T16:58:53.461Z,100457.22
2022-12-25T17:01:56.565Z,100456.56
2022-12-25T17:05:00.602Z,100457.72
2022-12-25T17:08:03.583Z,100448.13
2022-12-25T17:11:06.843Z,100451.84
2022-12-25T17:14:10.388Z,100453.91
2022-12-25T17:17:13.722Z,100452.50
2022-12-25T17:20:19.491Z,100447.63
2022-12-25T17:23:23.082Z,100447.81
2022-12-25T17:26:26.104Z,100433.72
2022-12-25T17:29:29.800Z,100423.78
2022-12-25T17:32:34.626Z,100417.50
2022-12-25T17:35:37.855Z,100410.09
2022-12-25T17:38:41.155Z,100417.06
2022-12-25T17:41:44.490Z,100416.56
2022-12-25T17:44:47.431Z,100424.88
2022-12-25T17:47:55.047Z,100437.16
2022-12-25T17:51:05.997Z,100434.78
2022-12-25T17:54:09.624Z,100448.31
2022-12-25T17:57:12.670Z,100452.34
2022-12-25T18:00:16.449Z,100434.41
2022-12-25T18:03:20.723Z,100438.28
2022-12-25T18:06:25.042Z,100430.94
2022-12-25T18:09:28.343Z,100436.78
2022-12-25T18:12:31.405Z,100429.56
2022-12-25T18:15:39.953Z,100425.81
2022-12-25T18:18:51.399Z,100429.25
2022-12-25T18:22:09.293Z,100422.59
2022-12-25T18:25:13.071Z,100422.09
2022-12-25T18:28:16.808Z,100408.91
2022-12-25T18:31:24.478Z,100409.34
2022-12-25T18:34:27.598Z,100419.22
2022-12-25T18:37:34.472Z,100417.56
2022-12-25T18:40:44.433Z,100409.63
2022-12-25T18:43:53.500Z,100405.84
2022-12-25T18:46:58.172Z,100404.78
2022-12-25T18:50:01.554Z,100399.22
2022-12-25T18:53:08.081Z,100396.84
2022-12-25T18:56:15.237Z,100394.97
2022-12-25T18:59:19.203Z,100395.63
2022-12-25T19:02:22.969Z,100388.72
2022-12-25T19:05:26.367Z,100384.94
2022-12-25T19:08:32.575Z,100392.50
2022-12-25T19:11:46.464Z,100399.06
2022-12-25T19:14:50.223Z,100401.84
2022-12-25T19:17:53.830Z,100397.66
2022-12-25T19:20:57.182Z,100390.28
2022-12-25T19:24:00.117Z,100398.16
2022-12-25T19:27:04.144Z,100393.88
2022-12-25T19:30:08.547Z,100382.87
2022-12-25T19:33:17.444Z,100385.63
2022-12-25T19:36:21.598Z,100371.56
2022-12-25T19:39:25.032Z,100370.25
2022-12-25T19:42:28.271Z,100364.75
2022-12-25T19:45:32.211Z,100366.37
2022-12-25T19:48:36.498Z,100352.09
2022-12-25T19:51:43.659Z,100352.97
2022-12-25T19:54:52.847Z,100338.34
2022-12-25T19:57:59.435Z,100337.19
2022-12-25T20:01:09.103Z,100334.47
2022-12-25T20:04:12.874Z,100336.84
2022-12-25T20:07:15.910Z,100349.47
2022-12-25T20:10:19.487Z,100346.66
2022-12-25T20:13:23.378Z,100353.91
2022-12-25T20:16:27.888Z,100350.03
2022-12-25T20:19:32.543Z,100339.69
2022-12-25T20:22:36.190Z,100341.28
2022-12-25T20:25:41.853Z,100331.25
2022-12-25T20:28:49.067Z,100335.19
2022-12-25T20:31:53.365Z,100324.41
2022-12-25T20:34:56.826Z,100330.97
2022-12-25T20:38:00.442Z,100339.25
2022-12-25T20:41:29.391Z,100339.47
2022-12-25T20:44:33.040Z,100340.97
2022-12-25T20:47:38.242Z,100346.44
2022-12-25T20:50:41.421Z,100338.25
2022-12-25T20:53:45.520Z,100348.72
2022-12-25T20:56:49.149Z,100351.88
2022-12-25T20:59:52.376Z,100350.38
2022-12-25T21:02:56.138Z,100334.75
2022-12-25T21:05:59.856Z,100339.38
2022-12-25T21:09:03.273Z,100330.75
2022-12-25T21:12:07.660Z,100325.50
2022-12-25T21:15:15.653Z,100337.53
2022-12-25T21:18:21.431Z,100347.28
2022-12-25T21:21:24.264Z,100323.28
2022-12-25T21:24:28.731Z,100326.00
2022-12-25T21:27:31.726Z,100329.38
2022-12-25T21:30:37.061Z,100337.97
2022-12-25T21:33:53.804Z,100340.25
2022-12-25T21:36:57.123Z,100342.53
2022-12-25T21:40:00.433Z,100337.09
2022-12-25T21:43:03.793Z,100348.91
2022-12-25T21:46:08.633Z,100361.75
2022-12-25T21:49:11.779Z,100383.59
2022-12-25T21:52:15.384Z,100391.31
2022-12-25T21:55:18.588Z,100379.91
2022-12-25T21:58:22.637Z,100373.28
2022-12-25T22:01:26.958Z,100357.69
2022-12-25T22:04:30.243Z,100348.47
2022-12-25T22:07:33.434Z,100342.19
2022-12-25T22:10:37.302Z,100326.84
2022-12-25T22:13:58.851Z,100342.78
2022-12-25T22:17:20.966Z,100334.91
2022-12-25T22:20:30.729Z,100325.28
2022-12-25T22:23:34.033Z,100321.75
2022-12-25T22:26:36.972Z,100324.06
2022-12-25T22:29:40.770Z,100327.06
2022-12-25T22:32:44.080Z,100332.03
2022-12-25T22:35:47.522Z,100333.62
2022-12-25T22:38:50.492Z,100341.25
2022-12-25T22:41:55.912Z,100344.47
2022-12-25T22:44:58.940Z,100339.41
2022-12-25T22:48:02.188Z,100332.81
2022-12-25T22:51:06.579Z,100329.44
2022-12-25T22:54:09.859Z,100330.22
2022-12-25T22:57:13.630Z,100322.56
2022-12-25T23:00:17.033Z,100331.19
2022-12-25T23:03:20.079Z,100330.47
2022-12-25T23:06:23.469Z,100318.78
2022-12-25T23:09:29.611Z,100312.94
2022-12-25T23:12:51.415Z,100309.56
2022-12-25T23:15:54.386Z,100305.66
2022-12-25T23:19:16.489Z,100300.09
2022-12-25T23:22:38.412Z,100305.94
2022-12-25T23:26:00.300Z,100321.84
2022-12-25T23:29:21.899Z,100297.44
2022-12-25T23:32:28.035Z,100300.44
2022-12-25T23:35:30.923Z,100306.03
2022-12-25T23:38:34.173Z,100283.66
2022-12-25T23:41:38.569Z,100280.19
2022-12-25T23:44:42.082Z,100291.81
2022-12-25T23:47:45.721Z,100279.47
2022-12-25T23:50:48.905Z,100293.72
2022-12-25T23:53:51.860Z,100298.88
2022-12-25T23:56:57.384Z,100291.81
